RYR92CF LIRF-EGBB
Flight info
| Callsign | RYR92CF |
|---|---|
| Flight time | 2h 18m |
| Altitude | 38000 |
| Route | NEMBO DCT ELKAP DCT GOVGO DCT AOSTA DCT ORSUD DCT MOLUS DCT IBODI DCT GOTED DCT TRO DCT CLM DCT KOPOR DCT ABNUR DCT DIMAL DCT ALESO T420 HEMEL |
| Aircraft | B738/M-SDE3FGILRWY/SB1 |
Departure
| Time | 2026-05-07 19:14 |
|---|---|
| Airport | Rome–Fiumicino Leonardo da Vinci International Airport (LIRF) |
Arrival
| Time | 2026-05-07 21:32 |
|---|---|
| Airport | Birmingham Airport (EGBB) |
| Time | Latitude | Longitude | Altitude | Speed | Heading |
|---|---|---|---|---|---|
| 2026-05-07 18:28 | 41.79590 | 12.26180 | 13 ft | 0 kts | 116° |
| 2026-05-07 18:59 | 41.79592 | 12.26174 | 13 ft | 4 kts | 116° |
| 2026-05-07 18:59 | 41.79604 | 12.26142 | 15 ft | 4 kts | 112° |
| 2026-05-07 19:00 | 41.79611 | 12.26108 | 14 ft | 4 kts | 83° |
| 2026-05-07 19:00 | 41.79605 | 12.26090 | 15 ft | 4 kts | 25° |
| 2026-05-07 19:00 | 41.79622 | 12.26100 | 14 ft | 4 kts | 25° |
| 2026-05-07 19:00 | 41.79646 | 12.26116 | 13 ft | 4 kts | 25° |
| 2026-05-07 19:01 | 41.79662 | 12.26126 | 14 ft | 0 kts | 25° |
| 2026-05-07 19:05 | 41.79667 | 12.26129 | 14 ft | 2 kts | 25° |
| 2026-05-07 19:05 | 41.79691 | 12.26145 | 14 ft | 5 kts | 26° |
| 2026-05-07 19:06 | 41.79735 | 12.26140 | 14 ft | 8 kts | 325° |
| 2026-05-07 19:06 | 41.79800 | 12.25968 | 15 ft | 13 kts | 295° |
| 2026-05-07 19:06 | 41.79840 | 12.25857 | 13 ft | 13 kts | 295° |
| 2026-05-07 19:07 | 41.79908 | 12.25845 | 13 ft | 12 kts | 25° |
| 2026-05-07 19:07 | 41.79982 | 12.25890 | 13 ft | 11 kts | 24° |
| 2026-05-07 19:07 | 41.80053 | 12.25933 | 13 ft | 11 kts | 24° |
| 2026-05-07 19:07 | 41.80123 | 12.25976 | 14 ft | 11 kts | 25° |
| 2026-05-07 19:08 | 41.80190 | 12.26018 | 13 ft | 10 kts | 25° |
| 2026-05-07 19:08 | 41.80255 | 12.26058 | 14 ft | 10 kts | 24° |
| 2026-05-07 19:08 | 41.80319 | 12.26097 | 13 ft | 10 kts | 24° |
| 2026-05-07 19:08 | 41.80380 | 12.26136 | 14 ft | 10 kts | 26° |
| 2026-05-07 19:09 | 41.80447 | 12.26174 | 17 ft | 13 kts | 12° |
| 2026-05-07 19:09 | 41.80529 | 12.26242 | 15 ft | 18 kts | 69° |
| 2026-05-07 19:09 | 41.80581 | 12.26426 | 15 ft | 24 kts | 70° |
| 2026-05-07 19:09 | 41.80638 | 12.26636 | 16 ft | 23 kts | 69° |
| 2026-05-07 19:10 | 41.80693 | 12.26833 | 14 ft | 22 kts | 70° |
| 2026-05-07 19:10 | 41.80742 | 12.27014 | 12 ft | 15 kts | 68° |
| 2026-05-07 19:10 | 41.80829 | 12.27030 | 13 ft | 14 kts | 340° |
| 2026-05-07 19:10 | 41.80918 | 12.26988 | 12 ft | 11 kts | 341° |
| 2026-05-07 19:11 | 41.80958 | 12.26932 | 11 ft | 9 kts | 264° |
| 2026-05-07 19:11 | 41.80954 | 12.26916 | 12 ft | 0 kts | 252° |
| 2026-05-07 19:13 | 41.80913 | 12.26765 | 13 ft | 51 kts | 250° |
| 2026-05-07 19:13 | 41.80706 | 12.26014 | 17 ft | 119 kts | 249° |
| 2026-05-07 19:13 | 41.80346 | 12.24722 | 53 ft | 172 kts | 250° |
| 2026-05-07 19:14 | 41.79915 | 12.23170 | 704 ft | 182 kts | 252° |
| 2026-05-07 19:14 | 41.79467 | 12.21510 | 1383 ft | 195 kts | 252° |
| 2026-05-07 19:14 | 41.79195 | 12.19721 | 2112 ft | 200 kts | 272° |
| 2026-05-07 19:14 | 41.79202 | 12.17822 | 2891 ft | 212 kts | 271° |
| 2026-05-07 19:15 | 41.79174 | 12.15735 | 3115 ft | 237 kts | 269° |
| 2026-05-07 19:15 | 41.79124 | 12.13392 | 3373 ft | 263 kts | 269° |
| 2026-05-07 19:15 | 41.79062 | 12.10904 | 4036 ft | 270 kts | 268° |
| 2026-05-07 19:15 | 41.79016 | 12.08366 | 4757 ft | 274 kts | 270° |
| 2026-05-07 19:16 | 41.79010 | 12.05799 | 5506 ft | 277 kts | 270° |
| 2026-05-07 19:16 | 41.79013 | 12.03229 | 6385 ft | 276 kts | 269° |
| 2026-05-07 19:16 | 41.79013 | 12.00646 | 7141 ft | 278 kts | 268° |
| 2026-05-07 19:16 | 41.79011 | 11.98049 | 7936 ft | 279 kts | 269° |
| 2026-05-07 19:17 | 41.79007 | 11.95446 | 8721 ft | 280 kts | 269° |
| 2026-05-07 19:17 | 41.79002 | 11.92829 | 9502 ft | 282 kts | 268° |
| 2026-05-07 19:17 | 41.78995 | 11.90188 | 10213 ft | 285 kts | 268° |
| 2026-05-07 19:17 | 41.78985 | 11.87460 | 10518 ft | 304 kts | 268° |
| 2026-05-07 19:18 | 41.78974 | 11.84522 | 10706 ft | 325 kts | 268° |
| 2026-05-07 19:18 | 41.79045 | 11.81437 | 11110 ft | 338 kts | 278° |
| 2026-05-07 19:18 | 41.79999 | 11.78546 | 11760 ft | 347 kts | 307° |
| 2026-05-07 19:18 | 41.81783 | 11.76360 | 12581 ft | 348 kts | 320° |
| 2026-05-07 19:19 | 41.83717 | 11.74374 | 13286 ft | 353 kts | 321° |
| 2026-05-07 19:19 | 41.85699 | 11.72389 | 13939 ft | 358 kts | 321° |
| 2026-05-07 19:19 | 41.87711 | 11.70380 | 14606 ft | 361 kts | 321° |
| 2026-05-07 19:19 | 41.89727 | 11.68355 | 15323 ft | 363 kts | 321° |
| 2026-05-07 19:20 | 41.91750 | 11.66308 | 16050 ft | 365 kts | 320° |
| 2026-05-07 19:20 | 41.93781 | 11.64240 | 16740 ft | 368 kts | 320° |
| 2026-05-07 19:20 | 41.95832 | 11.62141 | 17416 ft | 372 kts | 320° |
| 2026-05-07 19:20 | 41.97895 | 11.60021 | 18087 ft | 375 kts | 319° |
| 2026-05-07 19:21 | 41.99974 | 11.57880 | 18701 ft | 378 kts | 319° |
| 2026-05-07 19:21 | 42.02065 | 11.55723 | 19322 ft | 379 kts | 319° |
| 2026-05-07 19:21 | 42.04161 | 11.53559 | 19954 ft | 380 kts | 319° |
| 2026-05-07 19:21 | 42.06258 | 11.51391 | 20610 ft | 381 kts | 319° |
| 2026-05-07 19:22 | 42.08365 | 11.49211 | 21198 ft | 383 kts | 319° |
| 2026-05-07 19:22 | 42.10484 | 11.47015 | 21753 ft | 386 kts | 319° |
| 2026-05-07 19:22 | 42.12617 | 11.44803 | 22320 ft | 388 kts | 319° |
| 2026-05-07 19:22 | 42.14735 | 11.42605 | 22868 ft | 390 kts | 319° |
| 2026-05-07 19:23 | 42.16895 | 11.40370 | 23447 ft | 392 kts | 319° |
| 2026-05-07 19:23 | 42.19092 | 11.38100 | 23933 ft | 394 kts | 319° |
| 2026-05-07 19:23 | 42.21274 | 11.35845 | 24356 ft | 397 kts | 319° |
| 2026-05-07 19:23 | 42.22730 | 11.34340 | 24628 ft | 399 kts | 319° |
| 2026-05-07 19:24 | 42.25659 | 11.31306 | 25144 ft | 403 kts | 318° |
| 2026-05-07 19:24 | 42.27166 | 11.29744 | 25424 ft | 405 kts | 318° |
| 2026-05-07 19:24 | 42.29405 | 11.27421 | 25813 ft | 408 kts | 318° |
| 2026-05-07 19:24 | 42.32399 | 11.24310 | 26367 ft | 411 kts | 317° |
| 2026-05-07 19:25 | 42.34666 | 11.21953 | 26756 ft | 413 kts | 317° |
| 2026-05-07 19:25 | 42.36951 | 11.19574 | 27117 ft | 416 kts | 317° |
| 2026-05-07 19:25 | 42.38502 | 11.17957 | 27368 ft | 418 kts | 317° |
| 2026-05-07 19:25 | 42.41562 | 11.14766 | 27888 ft | 421 kts | 317° |
| 2026-05-07 19:26 | 42.43132 | 11.13127 | 28106 ft | 423 kts | 317° |
| 2026-05-07 19:26 | 42.45467 | 11.10688 | 28450 ft | 426 kts | 317° |
| 2026-05-07 19:26 | 42.47820 | 11.08226 | 28788 ft | 428 kts | 317° |
| 2026-05-07 19:26 | 42.50176 | 11.05760 | 29227 ft | 428 kts | 316° |
| 2026-05-07 19:27 | 42.52530 | 11.03296 | 29645 ft | 428 kts | 316° |
| 2026-05-07 19:27 | 42.54893 | 11.00818 | 29965 ft | 430 kts | 316° |
| 2026-05-07 19:27 | 42.57266 | 10.98325 | 30206 ft | 433 kts | 316° |
| 2026-05-07 19:27 | 42.59658 | 10.95810 | 30450 ft | 436 kts | 316° |
| 2026-05-07 19:28 | 42.62055 | 10.93288 | 30729 ft | 436 kts | 316° |
| 2026-05-07 19:28 | 42.64452 | 10.90766 | 31105 ft | 435 kts | 315° |
| 2026-05-07 19:28 | 42.66838 | 10.88254 | 31505 ft | 433 kts | 315° |
| 2026-05-07 19:28 | 42.69219 | 10.85744 | 31861 ft | 432 kts | 315° |
| 2026-05-07 19:29 | 42.71593 | 10.83238 | 32191 ft | 432 kts | 315° |
| 2026-05-07 19:29 | 42.73932 | 10.80767 | 32594 ft | 430 kts | 315° |
| 2026-05-07 19:29 | 42.76284 | 10.78280 | 33056 ft | 426 kts | 314° |
| 2026-05-07 19:29 | 42.78618 | 10.75809 | 33395 ft | 426 kts | 314° |
| 2026-05-07 19:30 | 42.80959 | 10.73325 | 33670 ft | 426 kts | 314° |
| 2026-05-07 19:30 | 42.83299 | 10.70838 | 33962 ft | 427 kts | 314° |
| 2026-05-07 19:30 | 42.85633 | 10.68357 | 34258 ft | 425 kts | 314° |
| 2026-05-07 19:30 | 42.87965 | 10.65877 | 34542 ft | 424 kts | 314° |
| 2026-05-07 19:31 | 42.90289 | 10.63403 | 34787 ft | 425 kts | 314° |
| 2026-05-07 19:31 | 42.92620 | 10.60919 | 35019 ft | 425 kts | 314° |
| 2026-05-07 19:31 | 42.94947 | 10.58437 | 35320 ft | 423 kts | 314° |
| 2026-05-07 19:31 | 42.97252 | 10.55979 | 35727 ft | 419 kts | 313° |
| 2026-05-07 19:32 | 42.99546 | 10.53528 | 35913 ft | 421 kts | 313° |
| 2026-05-07 19:32 | 43.01860 | 10.51049 | 36027 ft | 423 kts | 313° |
| 2026-05-07 19:32 | 43.04175 | 10.48568 | 36252 ft | 423 kts | 313° |
| 2026-05-07 19:32 | 43.06491 | 10.46086 | 36535 ft | 421 kts | 314° |
| 2026-05-07 19:33 | 43.08790 | 10.43620 | 36783 ft | 421 kts | 314° |
| 2026-05-07 19:33 | 43.11094 | 10.41146 | 36969 ft | 421 kts | 314° |
| 2026-05-07 19:33 | 43.13400 | 10.38665 | 37167 ft | 421 kts | 314° |
| 2026-05-07 19:33 | 43.15705 | 10.36185 | 37380 ft | 421 kts | 314° |
| 2026-05-07 19:34 | 43.17809 | 10.33918 | 37623 ft | 420 kts | 314° |
| 2026-05-07 19:34 | 43.20107 | 10.31442 | 37862 ft | 419 kts | 314° |
| 2026-05-07 19:34 | 43.22398 | 10.28970 | 37996 ft | 420 kts | 314° |
| 2026-05-07 19:34 | 43.24701 | 10.26479 | 37988 ft | 423 kts | 314° |
| 2026-05-07 19:35 | 43.29302 | 10.21501 | 37992 ft | 421 kts | 314° |
| 2026-05-07 19:35 | 43.33891 | 10.16531 | 37995 ft | 419 kts | 314° |
| 2026-05-07 19:36 | 43.38446 | 10.11584 | 38016 ft | 416 kts | 313° |
| 2026-05-07 19:36 | 43.42954 | 10.06677 | 38002 ft | 415 kts | 313° |
| 2026-05-07 19:37 | 43.47480 | 10.01740 | 38001 ft | 415 kts | 313° |
| 2026-05-07 19:37 | 43.52011 | 9.96787 | 38005 ft | 416 kts | 313° |
| 2026-05-07 19:38 | 43.56549 | 9.91818 | 38005 ft | 417 kts | 313° |
| 2026-05-07 19:38 | 43.61129 | 9.86792 | 38030 ft | 419 kts | 313° |
| 2026-05-07 19:39 | 43.65672 | 9.81798 | 38024 ft | 421 kts | 313° |
| 2026-05-07 19:39 | 43.70266 | 9.76738 | 38014 ft | 423 kts | 313° |
| 2026-05-07 19:40 | 43.74875 | 9.71652 | 38006 ft | 425 kts | 313° |
| 2026-05-07 19:40 | 43.79494 | 9.66545 | 38006 ft | 425 kts | 313° |
| 2026-05-07 19:41 | 43.84117 | 9.61423 | 38017 ft | 426 kts | 313° |
| 2026-05-07 19:41 | 43.88743 | 9.56288 | 38007 ft | 426 kts | 313° |
| 2026-05-07 19:42 | 43.93363 | 9.51148 | 38008 ft | 425 kts | 313° |
| 2026-05-07 19:42 | 43.97970 | 9.46013 | 38021 ft | 424 kts | 313° |
| 2026-05-07 19:43 | 44.02567 | 9.40877 | 38012 ft | 424 kts | 313° |
| 2026-05-07 19:43 | 44.07152 | 9.35744 | 38009 ft | 423 kts | 314° |
| 2026-05-07 19:44 | 44.11727 | 9.30612 | 38008 ft | 422 kts | 313° |
| 2026-05-07 19:44 | 44.16289 | 9.25484 | 38005 ft | 421 kts | 313° |
| 2026-05-07 19:45 | 44.20841 | 9.20356 | 38002 ft | 421 kts | 313° |
| 2026-05-07 19:45 | 44.25386 | 9.15226 | 38023 ft | 420 kts | 314° |
| 2026-05-07 19:46 | 44.29930 | 9.10087 | 37998 ft | 420 kts | 314° |
| 2026-05-07 19:46 | 44.34466 | 9.04944 | 38004 ft | 420 kts | 314° |
| 2026-05-07 19:47 | 44.39000 | 8.99795 | 37996 ft | 420 kts | 314° |
| 2026-05-07 19:47 | 44.43506 | 8.94667 | 37999 ft | 421 kts | 314° |
| 2026-05-07 19:48 | 44.48049 | 8.89485 | 38000 ft | 422 kts | 314° |
| 2026-05-07 19:48 | 44.52602 | 8.84282 | 37998 ft | 422 kts | 314° |
| 2026-05-07 19:49 | 44.57147 | 8.79079 | 37999 ft | 422 kts | 314° |
| 2026-05-07 19:49 | 44.61694 | 8.73861 | 38003 ft | 422 kts | 314° |
| 2026-05-07 19:50 | 44.66249 | 8.68622 | 38016 ft | 423 kts | 314° |
| 2026-05-07 19:50 | 44.70804 | 8.63373 | 38006 ft | 424 kts | 314° |
| 2026-05-07 19:51 | 44.75365 | 8.58107 | 38006 ft | 424 kts | 314° |
| 2026-05-07 19:51 | 44.79924 | 8.52831 | 37999 ft | 424 kts | 314° |
| 2026-05-07 19:52 | 44.84479 | 8.47550 | 37998 ft | 424 kts | 314° |
| 2026-05-07 19:52 | 44.89033 | 8.42257 | 38016 ft | 424 kts | 314° |
| 2026-05-07 19:53 | 44.93581 | 8.36960 | 38007 ft | 425 kts | 314° |
| 2026-05-07 19:53 | 44.98141 | 8.31638 | 37995 ft | 425 kts | 314° |
| 2026-05-07 19:54 | 45.02699 | 8.26307 | 37989 ft | 425 kts | 314° |
| 2026-05-07 19:54 | 45.07254 | 8.20970 | 37992 ft | 425 kts | 314° |
| 2026-05-07 19:55 | 45.11806 | 8.15622 | 37985 ft | 426 kts | 314° |
| 2026-05-07 19:55 | 45.16359 | 8.10263 | 37988 ft | 426 kts | 314° |
| 2026-05-07 19:56 | 45.20918 | 8.04885 | 37982 ft | 426 kts | 314° |
| 2026-05-07 19:56 | 45.25470 | 7.99504 | 37989 ft | 426 kts | 314° |
| 2026-05-07 19:57 | 45.30020 | 7.94113 | 37991 ft | 426 kts | 314° |
| 2026-05-07 19:57 | 45.34572 | 7.88708 | 37992 ft | 427 kts | 315° |
| 2026-05-07 19:58 | 45.39094 | 7.83328 | 37996 ft | 427 kts | 315° |
| 2026-05-07 19:58 | 45.43641 | 7.77906 | 38006 ft | 426 kts | 315° |
| 2026-05-07 19:59 | 45.48193 | 7.72465 | 37998 ft | 427 kts | 315° |
| 2026-05-07 19:59 | 45.52737 | 7.67024 | 38023 ft | 427 kts | 315° |
| 2026-05-07 20:00 | 45.57277 | 7.61574 | 38049 ft | 425 kts | 315° |
| 2026-05-07 20:00 | 45.61807 | 7.56124 | 38021 ft | 426 kts | 315° |
| 2026-05-07 20:01 | 45.66346 | 7.50652 | 38023 ft | 427 kts | 315° |
| 2026-05-07 20:01 | 45.70879 | 7.45175 | 37969 ft | 427 kts | 315° |
| 2026-05-07 20:02 | 45.75427 | 7.39666 | 37999 ft | 429 kts | 315° |
| 2026-05-07 20:02 | 45.80022 | 7.34132 | 37977 ft | 434 kts | 317° |
| 2026-05-07 20:03 | 45.84960 | 7.29052 | 37960 ft | 438 kts | 320° |
| 2026-05-07 20:03 | 45.89989 | 7.24089 | 37998 ft | 439 kts | 320° |
| 2026-05-07 20:04 | 45.94975 | 7.19051 | 37993 ft | 435 kts | 320° |
| 2026-05-07 20:04 | 45.99853 | 7.14068 | 37997 ft | 428 kts | 320° |
| 2026-05-07 20:05 | 46.04680 | 7.09106 | 38020 ft | 425 kts | 320° |
| 2026-05-07 20:05 | 46.09497 | 7.04144 | 38010 ft | 425 kts | 320° |
| 2026-05-07 20:06 | 46.14304 | 6.99187 | 38005 ft | 425 kts | 320° |
| 2026-05-07 20:06 | 46.19115 | 6.94214 | 38014 ft | 426 kts | 320° |
| 2026-05-07 20:07 | 46.23938 | 6.89218 | 38012 ft | 428 kts | 320° |
| 2026-05-07 20:07 | 46.28749 | 6.84224 | 38022 ft | 430 kts | 320° |
| 2026-05-07 20:08 | 46.33616 | 6.79161 | 38009 ft | 432 kts | 320° |
| 2026-05-07 20:08 | 46.38499 | 6.74070 | 38026 ft | 433 kts | 320° |
| 2026-05-07 20:09 | 46.43392 | 6.68955 | 38014 ft | 434 kts | 319° |
| 2026-05-07 20:10 | 46.49823 | 6.59939 | 38022 ft | 428 kts | 309° |
| 2026-05-07 20:10 | 46.53897 | 6.53629 | 38020 ft | 429 kts | 309° |
| 2026-05-07 20:11 | 46.58002 | 6.47341 | 38023 ft | 429 kts | 309° |
| 2026-05-07 20:11 | 46.62118 | 6.41073 | 38025 ft | 428 kts | 310° |
| 2026-05-07 20:12 | 46.66231 | 6.34812 | 38046 ft | 428 kts | 310° |
| 2026-05-07 20:12 | 46.69671 | 6.29560 | 38035 ft | 427 kts | 309° |
| 2026-05-07 20:13 | 46.73742 | 6.23333 | 38047 ft | 427 kts | 309° |
| 2026-05-07 20:13 | 46.77828 | 6.17065 | 38043 ft | 426 kts | 309° |
| 2026-05-07 20:14 | 46.81908 | 6.10793 | 38059 ft | 426 kts | 309° |
| 2026-05-07 20:14 | 46.85985 | 6.04509 | 38046 ft | 426 kts | 309° |
| 2026-05-07 20:15 | 46.90058 | 5.98218 | 38033 ft | 426 kts | 309° |
| 2026-05-07 20:15 | 46.94153 | 5.91944 | 38035 ft | 427 kts | 313° |
| 2026-05-07 20:16 | 46.99076 | 5.86962 | 38039 ft | 435 kts | 328° |
| 2026-05-07 20:16 | 47.04466 | 5.82901 | 38051 ft | 436 kts | 328° |
| 2026-05-07 20:17 | 47.09860 | 5.78836 | 38034 ft | 436 kts | 328° |
| 2026-05-07 20:17 | 47.15250 | 5.74706 | 38038 ft | 437 kts | 328° |
| 2026-05-07 20:18 | 47.20627 | 5.70549 | 38035 ft | 437 kts | 328° |
| 2026-05-07 20:18 | 47.26009 | 5.66375 | 38048 ft | 438 kts | 328° |
| 2026-05-07 20:19 | 47.31397 | 5.62187 | 38044 ft | 438 kts | 328° |
| 2026-05-07 20:19 | 47.36786 | 5.57990 | 38029 ft | 438 kts | 328° |
| 2026-05-07 20:20 | 47.42133 | 5.53697 | 38039 ft | 435 kts | 321° |
| 2026-05-07 20:20 | 47.46803 | 5.48126 | 38051 ft | 431 kts | 315° |
| 2026-05-07 20:21 | 47.51334 | 5.42323 | 38048 ft | 431 kts | 315° |
| 2026-05-07 20:21 | 47.55892 | 5.36531 | 38040 ft | 432 kts | 316° |
| 2026-05-07 20:22 | 47.60473 | 5.30767 | 38045 ft | 432 kts | 316° |
| 2026-05-07 20:22 | 47.65061 | 5.25012 | 38046 ft | 432 kts | 316° |
| 2026-05-07 20:23 | 47.69618 | 5.19288 | 38059 ft | 433 kts | 316° |
| 2026-05-07 20:23 | 47.74213 | 5.13501 | 38053 ft | 433 kts | 316° |
| 2026-05-07 20:24 | 47.78802 | 5.07707 | 38051 ft | 433 kts | 316° |
| 2026-05-07 20:24 | 47.83393 | 5.01896 | 38048 ft | 433 kts | 316° |
| 2026-05-07 20:25 | 47.87982 | 4.96073 | 38052 ft | 433 kts | 316° |
| 2026-05-07 20:25 | 47.92562 | 4.90247 | 38062 ft | 433 kts | 316° |
| 2026-05-07 20:26 | 47.97146 | 4.84403 | 38053 ft | 433 kts | 316° |
| 2026-05-07 20:26 | 48.01725 | 4.78550 | 38057 ft | 433 kts | 316° |
| 2026-05-07 20:27 | 48.06298 | 4.72692 | 38047 ft | 433 kts | 316° |
| 2026-05-07 20:27 | 48.10872 | 4.66817 | 38067 ft | 433 kts | 316° |
| 2026-05-07 20:28 | 48.15442 | 4.60933 | 38049 ft | 434 kts | 316° |
| 2026-05-07 20:28 | 48.20012 | 4.55035 | 38057 ft | 433 kts | 316° |
| 2026-05-07 20:29 | 48.24577 | 4.49129 | 38049 ft | 434 kts | 316° |
| 2026-05-07 20:29 | 48.29144 | 4.43206 | 38048 ft | 434 kts | 316° |
| 2026-05-07 20:30 | 48.33707 | 4.37274 | 38054 ft | 434 kts | 316° |
| 2026-05-07 20:30 | 48.38273 | 4.31323 | 38054 ft | 434 kts | 316° |
| 2026-05-07 20:31 | 48.42830 | 4.25369 | 38060 ft | 434 kts | 315° |
| 2026-05-07 20:31 | 48.47363 | 4.19432 | 38051 ft | 434 kts | 315° |
| 2026-05-07 20:32 | 48.51922 | 4.13446 | 38050 ft | 434 kts | 315° |
| 2026-05-07 20:32 | 48.56476 | 4.07452 | 38055 ft | 434 kts | 315° |
| 2026-05-07 20:33 | 48.60988 | 4.01498 | 38049 ft | 434 kts | 315° |
| 2026-05-07 20:33 | 48.65536 | 3.95483 | 38052 ft | 434 kts | 315° |
| 2026-05-07 20:34 | 48.70080 | 3.89457 | 38048 ft | 434 kts | 315° |
| 2026-05-07 20:34 | 48.74617 | 3.83425 | 38054 ft | 434 kts | 315° |
| 2026-05-07 20:35 | 48.79131 | 3.77409 | 38052 ft | 434 kts | 315° |
| 2026-05-07 20:35 | 48.83661 | 3.71356 | 38059 ft | 434 kts | 315° |
| 2026-05-07 20:36 | 48.88192 | 3.65288 | 38056 ft | 434 kts | 315° |
| 2026-05-07 20:36 | 48.92718 | 3.59210 | 38058 ft | 434 kts | 315° |
| 2026-05-07 20:37 | 48.97239 | 3.53124 | 38055 ft | 434 kts | 315° |
| 2026-05-07 20:37 | 49.01728 | 3.47067 | 38059 ft | 434 kts | 315° |
| 2026-05-07 20:38 | 49.06274 | 3.40915 | 38063 ft | 434 kts | 315° |
| 2026-05-07 20:38 | 49.10790 | 3.34789 | 38056 ft | 435 kts | 315° |
| 2026-05-07 20:39 | 49.15307 | 3.28647 | 38060 ft | 435 kts | 315° |
| 2026-05-07 20:39 | 49.19788 | 3.22537 | 38061 ft | 435 kts | 315° |
| 2026-05-07 20:40 | 49.24297 | 3.16375 | 38053 ft | 435 kts | 315° |
| 2026-05-07 20:40 | 49.28806 | 3.10195 | 38073 ft | 435 kts | 315° |
| 2026-05-07 20:41 | 49.33309 | 3.04009 | 38068 ft | 435 kts | 315° |
| 2026-05-07 20:41 | 49.37814 | 2.97805 | 38060 ft | 435 kts | 315° |
| 2026-05-07 20:42 | 49.42318 | 2.91585 | 38054 ft | 435 kts | 315° |
| 2026-05-07 20:42 | 49.46817 | 2.85357 | 38060 ft | 435 kts | 315° |
| 2026-05-07 20:43 | 49.51168 | 2.79318 | 38066 ft | 435 kts | 315° |
| 2026-05-07 20:43 | 49.55663 | 2.73062 | 38061 ft | 435 kts | 315° |
| 2026-05-07 20:44 | 49.60148 | 2.66805 | 38059 ft | 435 kts | 315° |
| 2026-05-07 20:44 | 49.64637 | 2.60527 | 38067 ft | 435 kts | 315° |
| 2026-05-07 20:45 | 49.69116 | 2.54245 | 38058 ft | 435 kts | 315° |
| 2026-05-07 20:45 | 49.73593 | 2.47950 | 38070 ft | 435 kts | 315° |
| 2026-05-07 20:46 | 49.78069 | 2.41640 | 38062 ft | 436 kts | 315° |
| 2026-05-07 20:46 | 49.82546 | 2.35311 | 38061 ft | 436 kts | 315° |
| 2026-05-07 20:47 | 49.87013 | 2.28981 | 38063 ft | 436 kts | 315° |
| 2026-05-07 20:47 | 49.91485 | 2.22628 | 38064 ft | 436 kts | 315° |
| 2026-05-07 20:48 | 49.95949 | 2.16268 | 38076 ft | 436 kts | 314° |
| 2026-05-07 20:48 | 50.00411 | 2.09894 | 38065 ft | 436 kts | 314° |
| 2026-05-07 20:49 | 50.04877 | 2.03497 | 38066 ft | 436 kts | 314° |
| 2026-05-07 20:49 | 50.09332 | 1.97099 | 38064 ft | 436 kts | 314° |
| 2026-05-07 20:50 | 50.13790 | 1.90681 | 38069 ft | 436 kts | 314° |
| 2026-05-07 20:50 | 50.18231 | 1.84248 | 38083 ft | 436 kts | 314° |
| 2026-05-07 20:51 | 50.22580 | 1.77660 | 38072 ft | 436 kts | 313° |
| 2026-05-07 20:51 | 50.26904 | 1.71021 | 38071 ft | 436 kts | 313° |
| 2026-05-07 20:52 | 50.31238 | 1.64382 | 38075 ft | 436 kts | 313° |
| 2026-05-07 20:52 | 50.35569 | 1.57748 | 38073 ft | 436 kts | 313° |
| 2026-05-07 20:53 | 50.39897 | 1.51104 | 38071 ft | 436 kts | 313° |
| 2026-05-07 20:53 | 50.44218 | 1.44450 | 38078 ft | 436 kts | 313° |
| 2026-05-07 20:54 | 50.48539 | 1.37783 | 38083 ft | 436 kts | 313° |
| 2026-05-07 20:54 | 50.52695 | 1.30969 | 38074 ft | 434 kts | 309° |
| 2026-05-07 20:55 | 50.56760 | 1.23934 | 38074 ft | 435 kts | 310° |
| 2026-05-07 20:55 | 50.60943 | 1.17061 | 38075 ft | 436 kts | 312° |
| 2026-05-07 20:56 | 50.65252 | 1.10340 | 38078 ft | 434 kts | 312° |
| 2026-05-07 20:56 | 50.67376 | 1.07018 | 37836 ft | 427 kts | 312° |
| 2026-05-07 20:56 | 50.69472 | 1.03717 | 37289 ft | 425 kts | 312° |
| 2026-05-07 20:56 | 50.71560 | 1.00407 | 36725 ft | 425 kts | 312° |
| 2026-05-07 20:57 | 50.73632 | 0.97109 | 36281 ft | 422 kts | 311° |
| 2026-05-07 20:57 | 50.75689 | 0.93830 | 35924 ft | 417 kts | 311° |
| 2026-05-07 20:57 | 50.77717 | 0.90591 | 35547 ft | 413 kts | 311° |
| 2026-05-07 20:57 | 50.79731 | 0.87371 | 35138 ft | 411 kts | 311° |
| 2026-05-07 20:58 | 50.81731 | 0.84170 | 34758 ft | 407 kts | 311° |
| 2026-05-07 20:58 | 50.83715 | 0.80991 | 34402 ft | 404 kts | 311° |
| 2026-05-07 20:58 | 50.85679 | 0.77842 | 34034 ft | 400 kts | 311° |
| 2026-05-07 20:58 | 50.87628 | 0.74724 | 33623 ft | 397 kts | 311° |
| 2026-05-07 20:59 | 50.89568 | 0.71631 | 33193 ft | 394 kts | 311° |
| 2026-05-07 20:59 | 50.91495 | 0.68558 | 32767 ft | 391 kts | 311° |
| 2026-05-07 20:59 | 50.92764 | 0.66531 | 32466 ft | 390 kts | 311° |
| 2026-05-07 20:59 | 50.94660 | 0.63498 | 32022 ft | 388 kts | 311° |
| 2026-05-07 21:00 | 50.96559 | 0.60456 | 31644 ft | 384 kts | 311° |
| 2026-05-07 21:00 | 50.98408 | 0.57469 | 31460 ft | 375 kts | 311° |
| 2026-05-07 21:00 | 51.00215 | 0.54522 | 31281 ft | 373 kts | 311° |
| 2026-05-07 21:00 | 51.02036 | 0.51537 | 31126 ft | 380 kts | 311° |
| 2026-05-07 21:01 | 51.03891 | 0.48499 | 30971 ft | 386 kts | 311° |
| 2026-05-07 21:01 | 51.05766 | 0.45446 | 30809 ft | 385 kts | 313° |
| 2026-05-07 21:01 | 51.07833 | 0.42723 | 30627 ft | 386 kts | 320° |
| 2026-05-07 21:01 | 51.10007 | 0.40240 | 30473 ft | 385 kts | 322° |
| 2026-05-07 21:02 | 51.12199 | 0.37801 | 30323 ft | 384 kts | 322° |
| 2026-05-07 21:02 | 51.14388 | 0.35366 | 30171 ft | 383 kts | 322° |
| 2026-05-07 21:02 | 51.16562 | 0.32926 | 30025 ft | 382 kts | 321° |
| 2026-05-07 21:02 | 51.18726 | 0.30474 | 29866 ft | 381 kts | 321° |
| 2026-05-07 21:03 | 51.20875 | 0.28022 | 29695 ft | 380 kts | 321° |
| 2026-05-07 21:03 | 51.23023 | 0.25556 | 29548 ft | 379 kts | 321° |
| 2026-05-07 21:03 | 51.25163 | 0.23092 | 29394 ft | 379 kts | 321° |
| 2026-05-07 21:03 | 51.27293 | 0.20634 | 29244 ft | 379 kts | 321° |
| 2026-05-07 21:04 | 51.29429 | 0.18163 | 28996 ft | 380 kts | 321° |
| 2026-05-07 21:04 | 51.31580 | 0.15672 | 28738 ft | 382 kts | 321° |
| 2026-05-07 21:04 | 51.33721 | 0.13190 | 28608 ft | 378 kts | 321° |
| 2026-05-07 21:04 | 51.35831 | 0.10744 | 28327 ft | 372 kts | 321° |
| 2026-05-07 21:05 | 51.37911 | 0.08329 | 28039 ft | 367 kts | 321° |
| 2026-05-07 21:05 | 51.39969 | 0.05937 | 27764 ft | 364 kts | 321° |
| 2026-05-07 21:05 | 51.42008 | 0.03562 | 27522 ft | 363 kts | 321° |
| 2026-05-07 21:05 | 51.44047 | 0.01184 | 27251 ft | 361 kts | 321° |
| 2026-05-07 21:06 | 51.46073 | -0.01182 | 26956 ft | 360 kts | 321° |
| 2026-05-07 21:06 | 51.48095 | -0.03545 | 26697 ft | 359 kts | 321° |
| 2026-05-07 21:06 | 51.50115 | -0.05908 | 26443 ft | 359 kts | 321° |
| 2026-05-07 21:06 | 51.52127 | -0.08266 | 26187 ft | 358 kts | 321° |
| 2026-05-07 21:07 | 51.54140 | -0.10626 | 25937 ft | 358 kts | 321° |
| 2026-05-07 21:07 | 51.56148 | -0.12983 | 25697 ft | 358 kts | 321° |
| 2026-05-07 21:07 | 51.58160 | -0.15347 | 25448 ft | 357 kts | 321° |
| 2026-05-07 21:07 | 51.60166 | -0.17707 | 25200 ft | 357 kts | 321° |
| 2026-05-07 21:08 | 51.62166 | -0.20062 | 24962 ft | 357 kts | 321° |
| 2026-05-07 21:08 | 51.64167 | -0.22421 | 24720 ft | 356 kts | 321° |
| 2026-05-07 21:08 | 51.66159 | -0.24772 | 24479 ft | 355 kts | 321° |
| 2026-05-07 21:08 | 51.68147 | -0.27120 | 24235 ft | 352 kts | 321° |
| 2026-05-07 21:09 | 51.70110 | -0.29443 | 23940 ft | 349 kts | 321° |
| 2026-05-07 21:09 | 51.72061 | -0.31753 | 23603 ft | 347 kts | 321° |
| 2026-05-07 21:09 | 51.73995 | -0.34046 | 23215 ft | 344 kts | 321° |
| 2026-05-07 21:09 | 51.75923 | -0.36334 | 22847 ft | 342 kts | 321° |
| 2026-05-07 21:10 | 51.77802 | -0.38565 | 22548 ft | 338 kts | 321° |
| 2026-05-07 21:10 | 51.79716 | -0.40842 | 22227 ft | 336 kts | 321° |
| 2026-05-07 21:10 | 51.81618 | -0.43008 | 21887 ft | 335 kts | 324° |
| 2026-05-07 21:10 | 51.83605 | -0.44970 | 21588 ft | 333 kts | 327° |
| 2026-05-07 21:11 | 51.85602 | -0.46863 | 21289 ft | 333 kts | 327° |
| 2026-05-07 21:11 | 51.87595 | -0.48759 | 20997 ft | 332 kts | 326° |
| 2026-05-07 21:11 | 51.91518 | -0.52568 | 20422 ft | 330 kts | 326° |
| 2026-05-07 21:12 | 51.93389 | -0.54715 | 20019 ft | 330 kts | 313° |
| 2026-05-07 21:12 | 51.94809 | -0.57590 | 19722 ft | 325 kts | 300° |
| 2026-05-07 21:12 | 51.95998 | -0.60704 | 19410 ft | 325 kts | 298° |
| 2026-05-07 21:12 | 51.97167 | -0.63834 | 19102 ft | 324 kts | 298° |
| 2026-05-07 21:13 | 51.98332 | -0.66952 | 18790 ft | 322 kts | 298° |
| 2026-05-07 21:13 | 51.99492 | -0.70039 | 18488 ft | 319 kts | 299° |
| 2026-05-07 21:13 | 52.00646 | -0.73096 | 18165 ft | 316 kts | 299° |
| 2026-05-07 21:13 | 52.01794 | -0.76123 | 17838 ft | 313 kts | 299° |
| 2026-05-07 21:14 | 52.02935 | -0.79126 | 17532 ft | 310 kts | 299° |
| 2026-05-07 21:14 | 52.04062 | -0.82089 | 17233 ft | 307 kts | 299° |
| 2026-05-07 21:14 | 52.05180 | -0.85029 | 16946 ft | 305 kts | 299° |
| 2026-05-07 21:14 | 52.06292 | -0.87955 | 16662 ft | 304 kts | 299° |
| 2026-05-07 21:15 | 52.07406 | -0.90888 | 16388 ft | 306 kts | 299° |
| 2026-05-07 21:15 | 52.08524 | -0.93835 | 16110 ft | 307 kts | 299° |
| 2026-05-07 21:15 | 52.09646 | -0.96794 | 15825 ft | 308 kts | 299° |
| 2026-05-07 21:15 | 52.10772 | -0.99766 | 15537 ft | 310 kts | 299° |
| 2026-05-07 21:16 | 52.11904 | -1.02758 | 15251 ft | 309 kts | 299° |
| 2026-05-07 21:16 | 52.13025 | -1.05722 | 14960 ft | 306 kts | 299° |
| 2026-05-07 21:16 | 52.14136 | -1.08662 | 14676 ft | 303 kts | 299° |
| 2026-05-07 21:16 | 52.15235 | -1.11576 | 14400 ft | 300 kts | 299° |
| 2026-05-07 21:17 | 52.16322 | -1.14458 | 14118 ft | 298 kts | 299° |
| 2026-05-07 21:17 | 52.17398 | -1.17317 | 13844 ft | 295 kts | 299° |
| 2026-05-07 21:17 | 52.18468 | -1.20166 | 13545 ft | 293 kts | 299° |
| 2026-05-07 21:17 | 52.19525 | -1.22980 | 13252 ft | 290 kts | 299° |
| 2026-05-07 21:18 | 52.20573 | -1.25774 | 12974 ft | 288 kts | 299° |
| 2026-05-07 21:18 | 52.21613 | -1.28550 | 12702 ft | 286 kts | 299° |
| 2026-05-07 21:18 | 52.22652 | -1.31326 | 12439 ft | 287 kts | 299° |
| 2026-05-07 21:18 | 52.23691 | -1.34107 | 12175 ft | 288 kts | 299° |
| 2026-05-07 21:19 | 52.24730 | -1.36891 | 11907 ft | 286 kts | 299° |
| 2026-05-07 21:19 | 52.25761 | -1.39655 | 11632 ft | 284 kts | 299° |
| 2026-05-07 21:19 | 52.26781 | -1.42390 | 11379 ft | 281 kts | 299° |
| 2026-05-07 21:19 | 52.27794 | -1.45112 | 11121 ft | 280 kts | 299° |
| 2026-05-07 21:20 | 52.28803 | -1.47826 | 10859 ft | 279 kts | 299° |
| 2026-05-07 21:20 | 52.29809 | -1.50536 | 10591 ft | 279 kts | 299° |
| 2026-05-07 21:20 | 52.30714 | -1.53315 | 10339 ft | 277 kts | 292° |
| 2026-05-07 21:20 | 52.31469 | -1.56187 | 10075 ft | 274 kts | 291° |
| 2026-05-07 21:21 | 52.32187 | -1.59014 | 9787 ft | 271 kts | 290° |
| 2026-05-07 21:21 | 52.32911 | -1.61890 | 9511 ft | 269 kts | 290° |
| 2026-05-07 21:21 | 52.33615 | -1.64695 | 9289 ft | 265 kts | 290° |
| 2026-05-07 21:21 | 52.34305 | -1.67449 | 9096 ft | 265 kts | 290° |
| 2026-05-07 21:22 | 52.35007 | -1.70262 | 8780 ft | 269 kts | 290° |
| 2026-05-07 21:22 | 52.35710 | -1.73086 | 8542 ft | 268 kts | 290° |
| 2026-05-07 21:22 | 52.36408 | -1.75895 | 8273 ft | 265 kts | 290° |
| 2026-05-07 21:22 | 52.37097 | -1.78671 | 8007 ft | 263 kts | 290° |
| 2026-05-07 21:23 | 52.37997 | -1.81258 | 7724 ft | 265 kts | 312° |
| 2026-05-07 21:23 | 52.39434 | -1.83131 | 7521 ft | 263 kts | 323° |
| 2026-05-07 21:23 | 52.40952 | -1.84789 | 7290 ft | 262 kts | 325° |
| 2026-05-07 21:23 | 52.42465 | -1.86409 | 7057 ft | 259 kts | 325° |
| 2026-05-07 21:24 | 52.43965 | -1.88008 | 6819 ft | 256 kts | 325° |
| 2026-05-07 21:24 | 52.45450 | -1.89587 | 6589 ft | 253 kts | 325° |
| 2026-05-07 21:24 | 52.46917 | -1.91148 | 6359 ft | 250 kts | 325° |
| 2026-05-07 21:24 | 52.48373 | -1.92696 | 6124 ft | 248 kts | 325° |
| 2026-05-07 21:25 | 52.49813 | -1.94230 | 5879 ft | 246 kts | 325° |
| 2026-05-07 21:25 | 52.51238 | -1.95749 | 5652 ft | 244 kts | 325° |
| 2026-05-07 21:25 | 52.52658 | -1.97255 | 5412 ft | 242 kts | 325° |
| 2026-05-07 21:25 | 52.54062 | -1.98742 | 5182 ft | 240 kts | 325° |
| 2026-05-07 21:26 | 52.55489 | -2.00153 | 4968 ft | 240 kts | 335° |
| 2026-05-07 21:26 | 52.57124 | -2.00527 | 4718 ft | 240 kts | 8° |
| 2026-05-07 21:26 | 52.58609 | -1.99451 | 4502 ft | 232 kts | 42° |
| 2026-05-07 21:26 | 52.59639 | -1.97503 | 4296 ft | 221 kts | 54° |
| 2026-05-07 21:27 | 52.60537 | -1.95535 | 4128 ft | 209 kts | 55° |
| 2026-05-07 21:27 | 52.61106 | -1.93455 | 3934 ft | 194 kts | 91° |
| 2026-05-07 21:27 | 52.60668 | -1.91450 | 3715 ft | 189 kts | 138° |
| 2026-05-07 21:27 | 52.59570 | -1.90409 | 3527 ft | 181 kts | 154° |
| 2026-05-07 21:28 | 52.58496 | -1.89342 | 3263 ft | 180 kts | 149° |
| 2026-05-07 21:28 | 52.57455 | -1.88229 | 2998 ft | 177 kts | 148° |
| 2026-05-07 21:28 | 52.56442 | -1.87113 | 2763 ft | 174 kts | 148° |
| 2026-05-07 21:28 | 52.55453 | -1.86014 | 2529 ft | 170 kts | 148° |
| 2026-05-07 21:29 | 52.54486 | -1.84937 | 2296 ft | 166 kts | 148° |
| 2026-05-07 21:29 | 52.53544 | -1.83888 | 2080 ft | 162 kts | 148° |
| 2026-05-07 21:29 | 52.52625 | -1.82865 | 1858 ft | 156 kts | 148° |
| 2026-05-07 21:29 | 52.51723 | -1.81861 | 1669 ft | 157 kts | 148° |
| 2026-05-07 21:30 | 52.50835 | -1.80872 | 1450 ft | 148 kts | 148° |
| 2026-05-07 21:30 | 52.50005 | -1.79948 | 1221 ft | 141 kts | 148° |
| 2026-05-07 21:30 | 52.49194 | -1.79044 | 1037 ft | 143 kts | 147° |
| 2026-05-07 21:30 | 52.48360 | -1.78116 | 838 ft | 146 kts | 146° |
| 2026-05-07 21:31 | 52.47523 | -1.77179 | 645 ft | 145 kts | 146° |
| 2026-05-07 21:31 | 52.46687 | -1.76244 | 430 ft | 145 kts | 146° |
| 2026-05-07 21:31 | 52.45864 | -1.75333 | 318 ft | 133 kts | 146° |
| 2026-05-07 21:31 | 52.45276 | -1.74679 | 326 ft | 68 kts | 146° |
| 2026-05-07 21:32 | 52.45008 | -1.74381 | 325 ft | 24 kts | 145° |
| 2026-05-07 21:32 | 52.44944 | -1.74258 | 326 ft | 14 kts | 82° |
| 2026-05-07 21:32 | 52.44968 | -1.74107 | 325 ft | 14 kts | 76° |
| 2026-05-07 21:32 | 52.44995 | -1.73941 | 323 ft | 15 kts | 70° |
| 2026-05-07 21:33 | 52.45041 | -1.73819 | 322 ft | 11 kts | 57° |
| 2026-05-07 21:33 | 52.45089 | -1.73729 | 322 ft | 10 kts | 36° |
| 2026-05-07 21:33 | 52.45128 | -1.73694 | 322 ft | 4 kts | 340° |
| 2026-05-07 21:33 | 52.45151 | -1.73718 | 322 ft | 4 kts | 327° |
| 2026-05-07 21:34 | 52.45169 | -1.73738 | 322 ft | 2 kts | 326° |
| 2026-05-07 21:34 | 52.45174 | -1.73743 | 322 ft | 1 kts | 326° |
| 2026-05-07 21:34 | 52.45176 | -1.73746 | 322 ft | 0 kts | 326° |
| 2026-05-07 21:37 | 52.45176 | -1.73745 | 322 ft | 0 kts | 325° |